Time;durP1;ratioP1;P1;durP2;ratioP2;P2;SDS_P1;SDS_P2;PMS_P1;PMS_P2;Temp;Humidity;BMP_temperature;BMP_pressure;BME280_temperature;BME280_humidity;BME280_pressure;Samples;Min_cycle;Max_cycle;Signal;HPM_P1;HPM_P2
2022/04/03 00:01:53;;;;;;;1.73;1.60;;;;;2.80;101577.00;;;;5045332;28;20260;-67
2022/04/03 00:04:39;;;;;;;3.40;2.20;;;;;2.80;101584.00;;;;5045471;28;20232;-69
2022/04/03 00:07:25;;;;;;;3.27;2.33;;;;;2.70;101574.00;;;;5043991;28;20225;-67
2022/04/03 00:10:12;;;;;;;3.53;2.23;;;;;2.80;101578.00;;;;5045581;28;20251;-67
2022/04/03 00:12:59;;;;;;;3.13;2.30;;;;;2.70;101587.00;;;;5045775;28;20241;-68
2022/04/03 00:15:46;;;;;;;3.90;1.93;;;;;2.70;101582.00;;;;5025066;28;20761;-68
2022/04/03 00:18:33;;;;;;;1.97;1.60;;;;;2.70;101580.00;;;;5027991;28;20228;-66
2022/04/03 00:21:20;;;;;;;2.27;1.97;;;;;2.70;101583.00;;;;5041355;28;20232;-68
2022/04/03 00:24:07;;;;;;;2.93;2.00;;;;;2.70;101579.00;;;;5048906;28;20638;-68
2022/04/03 00:26:54;;;;;;;2.67;1.93;;;;;2.70;101582.00;;;;5049166;28;20252;-67
2022/04/03 00:29:42;;;;;;;2.90;1.93;;;;;2.60;101583.00;;;;5049178;28;20283;-68
2022/04/03 00:32:28;;;;;;;2.00;1.80;;;;;2.50;101576.00;;;;5050283;28;20615;-68
2022/04/03 00:35:15;;;;;;;2.10;1.90;;;;;2.50;101580.00;;;;5046387;28;20271;-66
2022/04/03 00:38:02;;;;;;;2.00;1.77;;;;;2.50;101579.00;;;;5023709;28;20225;-67
2022/04/03 00:40:48;;;;;;;3.00;2.20;;;;;2.40;101580.00;;;;5016668;28;20708;-66
2022/04/03 00:43:35;;;;;;;2.60;2.27;;;;;2.40;101575.00;;;;5015771;28;20604;-66
2022/04/03 00:46:23;;;;;;;5.80;1.70;;;;;2.30;101583.00;;;;5021988;28;20233;-67
2022/04/03 00:49:09;;;;;;;3.70;2.10;;;;;2.20;101578.00;;;;5032823;28;20601;-68
2022/04/03 00:51:55;;;;;;;2.67;2.07;;;;;2.20;101581.00;;;;5049130;28;20237;-66
2022/04/03 00:54:44;;;;;;;3.27;2.00;;;;;2.20;101581.00;;;;5035897;28;20240;-65
2022/04/03 00:57:31;;;;;;;2.57;2.07;;;;;2.10;101582.00;;;;5026988;28;20244;-67
2022/04/03 01:00:17;;;;;;;3.17;2.40;;;;;2.10;101577.00;;;;5038347;28;20706;-67
2022/04/03 01:03:05;;;;;;;3.03;1.90;;;;;2.20;101582.00;;;;5045920;28;20248;-67
2022/04/03 01:05:52;;;;;;;3.13;1.83;;;;;2.10;101574.00;;;;5048483;28;20307;-65
2022/04/03 01:08:39;;;;;;;2.07;1.87;;;;;2.10;101578.00;;;;5048589;28;20703;-67
2022/04/03 01:11:25;;;;;;;4.23;2.00;;;;;2.10;101556.00;;;;5051522;28;20264;-69
2022/04/03 01:14:12;;;;;;;2.40;1.83;;;;;2.20;101576.00;;;;5064226;28;20466;-69
2022/04/03 01:16:58;;;;;;;2.70;1.87;;;;;2.10;101571.00;;;;5059650;28;20236;-69
2022/04/03 01:19:46;;;;;;;2.57;2.03;;;;;2.20;101574.00;;;;5059511;28;20254;-68
2022/04/03 01:22:33;;;;;;;2.50;2.00;;;;;2.10;101572.00;;;;5052883;28;20271;-71
2022/04/03 01:25:21;;;;;;;6.10;2.00;;;;;2.10;101573.00;;;;5068906;28;20237;-68
2022/04/03 01:28:08;;;;;;;2.07;1.83;;;;;2.00;101575.00;;;;5069445;28;20244;-68
2022/04/03 01:30:55;;;;;;;2.27;1.90;;;;;2.00;101574.00;;;;5067053;28;20240;-70
2022/04/03 01:33:41;;;;;;;2.33;2.00;;;;;2.00;101576.00;;;;5039196;28;20232;-68
2022/04/03 01:36:27;;;;;;;3.13;2.23;;;;;1.90;101575.00;;;;5069708;28;20236;-70
2022/04/03 01:39:14;;;;;;;5.63;2.20;;;;;2.00;101570.00;;;;5068759;28;20335;-72
2022/04/03 01:42:03;;;;;;;2.43;1.80;;;;;1.90;101569.00;;;;5052834;28;20626;-63
2022/04/03 01:44:49;;;;;;;2.73;2.00;;;;;1.90;101573.00;;;;5034851;28;20841;-68
2022/04/03 01:47:36;;;;;;;2.53;1.57;;;;;1.80;101569.00;;;;5031480;28;20228;-65
2022/04/03 01:50:22;;;;;;;2.37;1.90;;;;;1.70;101568.00;;;;5043223;28;20741;-67
2022/04/03 01:53:08;;;;;;;3.30;2.00;;;;;1.70;101566.00;;;;5045386;28;20248;-67
2022/04/03 01:55:59;;;;;;;1.47;1.37;;;;;1.70;101568.00;;;;5045539;28;20231;-67
2022/04/03 01:58:46;;;;;;;2.70;2.10;;;;;1.50;101572.00;;;;5033363;28;20240;-67
2022/04/03 02:01:34;;;;;;;3.37;1.90;;;;;1.60;101571.00;;;;5030364;28;20232;-67
2022/04/03 02:04:20;;;;;;;2.57;1.60;;;;;1.60;101570.00;;;;5044503;28;20243;-66
2022/04/03 02:07:07;;;;;;;2.03;1.70;;;;;1.40;101561.00;;;;5041953;28;20691;-66
2022/04/03 02:09:53;;;;;;;2.40;1.60;;;;;1.40;101562.00;;;;5044726;28;20259;-67
2022/04/03 02:12:39;;;;;;;3.27;1.87;;;;;1.40;101569.00;;;;5023108;28;20291;-68
2022/04/03 02:15:27;;;;;;;1.77;1.50;;;;;1.50;101572.00;;;;5042080;28;20248;-66
2022/04/03 02:18:13;;;;;;;5.13;2.30;;;;;1.50;101544.00;;;;5013478;28;20313;-68
2022/04/03 02:21:00;;;;;;;3.07;1.70;;;;;1.50;101569.00;;;;5013335;28;20238;-67
2022/04/03 02:23:46;;;;;;;6.17;2.57;;;;;1.40;101564.00;;;;5014615;28;20307;-68
2022/04/03 02:26:33;;;;;;;2.20;2.00;;;;;1.50;101571.00;;;;5022571;28;20232;-67
2022/04/03 02:29:19;;;;;;;3.40;1.80;;;;;1.40;101575.00;;;;5038099;28;20237;-66
2022/04/03 02:32:08;;;;;;;3.00;1.97;;;;;1.40;101573.00;;;;5040969;28;20586;-67
2022/04/03 02:34:54;;;;;;;2.20;1.63;;;;;1.40;101578.00;;;;5033957;28;20279;-66
2022/04/03 02:37:42;;;;;;;2.80;2.00;;;;;1.50;101573.00;;;;5031731;28;20236;-65
2022/04/03 02:40:29;;;;;;;3.20;2.10;;;;;1.30;101571.00;;;;5044269;28;20228;-67
2022/04/03 02:43:15;;;;;;;2.03;1.67;;;;;1.40;101562.00;;;;5038214;28;20244;-66
2022/04/03 02:46:01;;;;;;;4.60;1.70;;;;;1.30;101576.00;;;;5044737;28;22850;-69
2022/04/03 02:48:49;;;;;;;1.40;1.30;;;;;1.20;101562.00;;;;5038197;28;20232;-67
2022/04/03 02:51:36;;;;;;;1.90;1.53;;;;;1.20;101569.00;;;;5030306;28;20503;-66
2022/04/03 02:54:22;;;;;;;2.40;1.70;;;;;1.10;101568.00;;;;5044201;28;20224;-67
2022/04/03 02:57:09;;;;;;;3.17;1.93;;;;;1.10;101563.00;;;;5044676;28;20279;-68
2022/04/03 02:59:55;;;;;;;3.00;1.73;;;;;1.00;101569.00;;;;5039397;28;20278;-67
2022/04/03 03:02:41;;;;;;;1.50;1.40;;;;;1.00;101568.00;;;;5027141;28;20244;-67
2022/04/03 03:05:29;;;;;;;2.50;1.93;;;;;1.00;101561.00;;;;5043977;28;20232;-68
2022/04/03 03:08:15;;;;;;;1.60;1.50;;;;;0.90;101562.00;;;;5041848;28;20231;-67
2022/04/03 03:11:03;;;;;;;2.37;1.87;;;;;0.80;101567.00;;;;5043104;28;20232;-67
2022/04/03 03:13:49;;;;;;;2.07;1.87;;;;;0.70;101565.00;;;;5036426;28;20725;-67
2022/04/03 03:16:35;;;;;;;1.57;1.47;;;;;0.80;101564.00;;;;5027670;28;21080;-68
2022/04/03 03:19:23;;;;;;;1.47;1.37;;;;;0.70;101563.00;;;;5037306;28;20225;-67
2022/04/03 03:22:10;;;;;;;1.40;1.30;;;;;0.50;101564.00;;;;5042332;28;20229;-67
2022/04/03 03:24:57;;;;;;;1.63;1.53;;;;;0.80;101564.00;;;;5042119;28;20363;-66
2022/04/03 03:27:43;;;;;;;2.13;1.87;;;;;0.60;101559.00;;;;5030286;28;20235;-68
2022/04/03 03:30:30;;;;;;;2.33;1.97;;;;;0.50;101564.00;;;;5027406;28;20344;-67
2022/04/03 03:33:16;;;;;;;3.77;2.23;;;;;0.50;101572.00;;;;5037687;28;20232;-68
2022/04/03 03:36:03;;;;;;;2.53;2.00;;;;;0.50;101573.00;;;;5043864;28;20240;-67
2022/04/03 03:38:50;;;;;;;3.90;2.03;;;;;0.60;101573.00;;;;5032284;28;20224;-67
2022/04/03 03:41:37;;;;;;;2.10;1.90;;;;;0.40;101570.00;;;;5029525;28;21249;-68
2022/04/03 03:44:23;;;;;;;1.77;1.67;;;;;0.50;101565.00;;;;5043200;28;20599;-70
2022/04/03 03:47:09;;;;;;;2.00;1.50;;;;;0.30;101570.00;;;;5043512;28;20709;-68
2022/04/03 03:49:56;;;;;;;1.87;1.63;;;;;0.20;101570.00;;;;5042425;28;20310;-69
2022/04/03 03:52:42;;;;;;;2.30;2.00;;;;;0.20;101573.00;;;;5044393;28;20240;-68
2022/04/03 03:55:30;;;;;;;2.70;1.63;;;;;0.20;101576.00;;;;5047648;28;20708;-64
2022/04/03 03:58:17;;;;;;;2.00;1.60;;;;;0.20;101579.00;;;;5044104;28;20229;-66
2022/04/03 04:01:04;;;;;;;1.83;1.67;;;;;0.00;101571.00;;;;5047307;28;20243;-66
2022/04/03 04:03:50;;;;;;;1.90;1.70;;;;;0.20;101570.00;;;;5036750;28;20748;-67
2022/04/03 04:06:37;;;;;;;2.77;1.80;;;;;0.10;101577.00;;;;5030603;28;20351;-67
2022/04/03 04:09:24;;;;;;;5.47;1.60;;;;;0.10;101583.00;;;;5046829;28;20224;-65
2022/04/03 04:12:11;;;;;;;1.80;1.63;;;;;0.10;101585.00;;;;5047463;28;20236;-64
2022/04/03 04:14:58;;;;;;;2.83;1.57;;;;;0.10;101587.00;;;;5047195;28;20231;-67
2022/04/03 04:17:45;;;;;;;4.30;1.87;;;;;0.00;101586.00;;;;5033045;28;20228;-66
2022/04/03 04:20:32;;;;;;;1.63;1.40;;;;;0.10;101591.00;;;;5047509;28;20287;-66
2022/04/03 04:23:18;;;;;;;1.70;1.37;;;;;0.00;101595.00;;;;5046845;28;20251;-67
2022/04/03 04:26:05;;;;;;;3.47;2.00;;;;;0.00;101590.00;;;;5046973;28;20247;-67
2022/04/03 04:28:52;;;;;;;1.70;1.60;;;;;0.00;101595.00;;;;5046884;28;20228;-66
2022/04/03 04:31:39;;;;;;;1.80;1.70;;;;;-0.10;101599.00;;;;5033415;28;20232;-67
2022/04/03 04:34:25;;;;;;;1.73;1.50;;;;;-0.20;101607.00;;;;5045365;28;20240;-67
2022/04/03 04:37:12;;;;;;;1.90;1.70;;;;;-0.20;101595.00;;;;5046829;28;20331;-66
2022/04/03 04:39:58;;;;;;;1.70;1.60;;;;;-0.20;101592.00;;;;5046591;28;20284;-64
2022/04/03 04:42:44;;;;;;;2.17;1.70;;;;;-0.30;101600.00;;;;5046785;28;21190;-67
2022/04/03 04:45:32;;;;;;;2.33;1.97;;;;;-0.30;101598.00;;;;5031162;28;20260;-66
2022/04/03 04:48:19;;;;;;;1.97;1.70;;;;;-0.30;101604.00;;;;5046682;28;20811;-66
2022/04/03 04:51:05;;;;;;;6.83;1.80;;;;;-0.20;101615.00;;;;5046300;28;20232;-66
2022/04/03 04:53:52;;;;;;;1.77;1.63;;;;;-0.40;101613.00;;;;5038219;28;20230;-68
2022/04/03 04:56:39;;;;;;;2.20;1.70;;;;;-0.30;101609.00;;;;5037773;28;20616;-69
2022/04/03 04:59:26;;;;;;;2.13;1.80;;;;;-0.40;101608.00;;;;5046038;28;21031;-68
2022/04/03 05:02:13;;;;;;;1.43;1.33;;;;;-0.30;101621.00;;;;5029752;28;20607;-67
2022/04/03 05:05:00;;;;;;;1.40;1.30;;;;;-0.40;101614.00;;;;5018571;28;20241;-67
2022/04/03 05:07:47;;;;;;;1.80;1.63;;;;;-0.50;101624.00;;;;5037251;28;20241;-67
2022/04/03 05:10:33;;;;;;;2.33;1.70;;;;;-0.30;101609.00;;;;5031535;28;20239;-66
2022/04/03 05:13:25;;;;;;;1.83;1.73;;;;;-0.40;101607.00;;;;5046369;28;20229;-67
2022/04/03 05:16:11;;;;;;;1.57;1.47;;;;;-0.40;101597.00;;;;5046247;28;20236;-67
2022/04/03 05:18:59;;;;;;;1.77;1.30;;;;;-0.40;101621.00;;;;5037313;28;20240;-68
2022/04/03 05:21:45;;;;;;;1.80;1.37;;;;;-0.30;101615.00;;;;5009060;28;20237;-65
2022/04/03 05:24:32;;;;;;;2.10;1.73;;;;;-0.40;101620.00;;;;5029990;28;20236;-66
2022/04/03 05:27:18;;;;;;;1.73;1.60;;;;;-0.40;101622.00;;;;5028064;28;20241;-67
2022/04/03 05:30:06;;;;;;;1.40;1.30;;;;;-0.30;101636.00;;;;5018054;28;20232;-68
2022/04/03 05:32:52;;;;;;;2.27;1.50;;;;;-0.40;101633.00;;;;5017100;28;20263;-67
2022/04/03 05:35:41;;;;;;;2.30;1.70;;;;;-0.40;101627.00;;;;5015006;28;20229;-63
2022/04/03 05:38:27;;;;;;;3.17;2.10;;;;;-0.40;101630.00;;;;5029525;28;20812;-67
2022/04/03 05:41:13;;;;;;;1.50;1.33;;;;;-0.40;101631.00;;;;5042597;28;20232;-65
2022/04/03 05:44:01;;;;;;;4.67;2.57;;;;;-0.30;101627.00;;;;5046211;28;20255;-65
2022/04/03 05:46:47;;;;;;;2.03;1.87;;;;;-0.30;101645.00;;;;5021317;28;20237;-66
2022/04/03 05:49:34;;;;;;;1.83;1.73;;;;;-0.20;101578.00;;;;5030541;28;20245;-67
2022/04/03 05:52:21;;;;;;;3.37;1.67;;;;;-0.20;101637.00;;;;5046517;28;20229;-67
2022/04/03 05:55:08;;;;;;;2.10;1.50;;;;;-0.20;101640.00;;;;5046524;28;20232;-67
2022/04/03 05:57:55;;;;;;;1.90;1.77;;;;;-0.10;101647.00;;;;5044894;28;20732;-66
2022/04/03 06:00:41;;;;;;;2.40;1.90;;;;;0.00;101643.00;;;;5032458;28;20232;-68
2022/04/03 06:03:28;;;;;;;4.93;1.90;;;;;0.00;101636.00;;;;5044544;28;20228;-67
2022/04/03 06:06:14;;;;;;;2.07;1.70;;;;;0.00;101643.00;;;;5042316;28;20612;-67
2022/04/03 06:09:02;;;;;;;1.67;1.50;;;;;0.20;101644.00;;;;5043430;28;20231;-67
2022/04/03 06:11:48;;;;;;;2.20;2.00;;;;;0.20;101649.00;;;;5033599;28;20784;-67
2022/04/03 06:14:34;;;;;;;4.13;2.30;;;;;0.20;101653.00;;;;5027877;28;20228;-66
2022/04/03 06:17:21;;;;;;;2.20;1.77;;;;;0.30;101654.00;;;;5045385;28;20836;-67
2022/04/03 06:20:08;;;;;;;2.63;1.80;;;;;0.40;101651.00;;;;5043753;28;20231;-67
2022/04/03 06:22:54;;;;;;;8.20;2.80;;;;;0.40;101649.00;;;;5027046;28;20283;-67
2022/04/03 06:25:42;;;;;;;2.80;1.80;;;;;0.50;101649.00;;;;5033495;28;20233;-67
2022/04/03 06:28:29;;;;;;;2.47;2.23;;;;;0.50;101649.00;;;;5020616;28;20251;-67
2022/04/03 06:31:15;;;;;;;2.50;2.00;;;;;0.50;101654.00;;;;5022698;28;20632;-66
2022/04/03 06:34:02;;;;;;;2.77;1.97;;;;;0.60;101652.00;;;;5022452;28;20265;-64
2022/04/03 06:36:48;;;;;;;2.37;2.07;;;;;0.70;101666.00;;;;5008434;28;20234;-66
2022/04/03 06:39:35;;;;;;;2.20;1.90;;;;;0.80;101658.00;;;;5017682;28;20264;-67
2022/04/03 06:42:22;;;;;;;2.90;2.00;;;;;1.00;101650.00;;;;5032650;28;20226;-66
2022/04/03 06:45:09;;;;;;;3.07;2.00;;;;;1.20;101652.00;;;;5038694;28;20718;-68
2022/04/03 06:47:56;;;;;;;6.43;2.63;;;;;1.40;101670.00;;;;5044532;28;20221;-67
2022/04/03 06:50:43;;;;;;;2.37;2.17;;;;;1.40;101659.00;;;;5031322;28;20244;-66
2022/04/03 06:53:29;;;;;;;2.63;2.30;;;;;1.50;101659.00;;;;5044374;28;20233;-69
2022/04/03 06:56:15;;;;;;;4.43;2.00;;;;;1.60;101658.00;;;;5044111;28;20310;-65
2022/04/03 06:59:04;;;;;;;4.37;2.77;;;;;1.70;101656.00;;;;5044416;28;20224;-68
2022/04/03 07:01:50;;;;;;;2.97;2.10;;;;;1.70;101658.00;;;;5037760;28;20232;-64
2022/04/03 07:04:36;;;;;;;2.30;2.10;;;;;1.90;101665.00;;;;5034299;28;20228;-66
2022/04/03 07:07:23;;;;;;;4.40;2.50;;;;;2.10;101670.00;;;;5040980;28;20233;-66
2022/04/03 07:10:10;;;;;;;2.37;2.10;;;;;2.10;101662.00;;;;5043932;28;20287;-67
2022/04/03 07:12:59;;;;;;;3.10;2.37;;;;;2.30;101668.00;;;;5043624;28;20240;-66
2022/04/03 07:15:48;;;;;;;3.00;2.70;;;;;2.30;101669.00;;;;5031406;28;20299;-67
2022/04/03 07:18:36;;;;;;;3.67;2.80;;;;;2.40;101674.00;;;;5026732;28;20227;-67
2022/04/03 07:21:23;;;;;;;3.23;2.47;;;;;2.50;101668.00;;;;5043787;28;20677;-66
2022/04/03 07:24:09;;;;;;;3.63;2.23;;;;;2.70;101661.00;;;;5043744;28;20857;-66
2022/04/03 07:26:55;;;;;;;5.00;2.53;;;;;3.00;101662.00;;;;5043549;28;20259;-67
2022/04/03 07:29:41;;;;;;;2.67;2.37;;;;;3.00;101666.00;;;;5030238;28;20598;-67
2022/04/03 07:32:29;;;;;;;2.97;2.57;;;;;3.20;101670.00;;;;5041382;28;20363;-68
2022/04/03 07:35:15;;;;;;;4.10;1.73;;;;;3.20;101672.00;;;;5021921;28;20284;-68
2022/04/03 07:38:02;;;;;;;2.83;2.30;;;;;3.20;101671.00;;;;5021340;28;20834;-66
2022/04/03 07:40:48;;;;;;;2.63;2.17;;;;;3.40;101668.00;;;;5015621;28;20300;-68
2022/04/03 07:43:40;;;;;;;3.43;2.43;;;;;3.30;101678.00;;;;5028496;28;20249;-67
2022/04/03 07:46:27;;;;;;;4.93;2.40;;;;;3.40;101683.00;;;;5029725;28;20371;-67
2022/04/03 07:49:15;;;;;;;4.43;2.00;;;;;3.30;101686.00;;;;5026894;28;20737;-67
2022/04/03 07:52:01;;;;;;;4.00;2.20;;;;;3.40;101687.00;;;;5041456;28;20244;-69
2022/04/03 07:54:47;;;;;;;2.73;2.30;;;;;3.50;101690.00;;;;5030399;28;20306;-67
2022/04/03 07:57:34;;;;;;;4.30;2.70;;;;;3.40;101638.00;;;;5026615;28;20278;-67
2022/04/03 08:00:21;;;;;;;2.70;2.13;;;;;3.30;101683.00;;;;5041585;28;20267;-67
2022/04/03 08:03:07;;;;;;;5.87;2.37;;;;;3.30;101688.00;;;;5041512;28;20732;-67
2022/04/03 08:05:56;;;;;;;4.00;2.50;;;;;3.20;101695.00;;;;5027932;28;20356;-68
2022/04/03 08:08:42;;;;;;;3.37;2.53;;;;;3.40;101692.00;;;;5038197;28;20262;-68
2022/04/03 08:11:29;;;;;;;3.80;2.60;;;;;3.30;101705.00;;;;5041814;28;20386;-68
2022/04/03 08:14:16;;;;;;;3.57;2.67;;;;;3.30;101702.00;;;;5027183;28;20908;-68
2022/04/03 08:17:03;;;;;;;3.47;2.90;;;;;3.40;101707.00;;;;5023906;28;20237;-66
2022/04/03 08:19:49;;;;;;;4.03;3.63;;;;;3.30;101708.00;;;;5035432;28;20252;-67
2022/04/03 08:22:37;;;;;;;4.73;3.93;;;;;3.40;101717.00;;;;5018367;28;20283;-68
2022/04/03 08:25:24;;;;;;;4.40;3.80;;;;;3.40;101714.00;;;;5040436;28;20233;-69
2022/04/03 08:28:10;;;;;;;4.57;3.77;;;;;3.40;101710.00;;;;5041612;28;20248;-68
2022/04/03 08:30:57;;;;;;;4.50;3.57;;;;;3.40;101711.00;;;;5034256;28;20265;-68
2022/04/03 08:33:49;;;;;;;4.33;2.90;;;;;3.70;101715.00;;;;5038614;28;20243;-67
2022/04/03 08:36:36;;;;;;;2.83;2.20;;;;;3.50;101719.00;;;;5029674;28;20225;-67
2022/04/03 08:39:25;;;;;;;4.00;2.80;;;;;3.40;101718.00;;;;5030831;28;20226;-68
2022/04/03 08:42:12;;;;;;;14.97;3.13;;;;;3.50;101709.00;;;;5029006;28;20292;-68
2022/04/03 08:44:58;;;;;;;3.43;2.40;;;;;3.60;101718.00;;;;5022119;28;20294;-68
2022/04/03 08:47:47;;;;;;;3.13;2.27;;;;;3.70;101713.00;;;;5043536;28;20240;-69
2022/04/03 08:50:38;;;;;;;2.13;1.93;;;;;3.90;101715.00;;;;5037024;28;20245;-70
2022/04/03 08:53:28;;;;;;;1.93;1.70;;;;;4.00;101723.00;;;;5048900;28;20301;-68
2022/04/03 08:56:16;;;;;;;1.90;1.80;;;;;3.70;101718.00;;;;5046522;28;20243;-68
2022/04/03 08:59:03;;;;;;;3.33;1.47;;;;;3.50;101728.00;;;;5046514;28;20296;-69
2022/04/03 09:01:52;;;;;;;4.10;2.00;;;;;3.40;101725.00;;;;5033833;28;20237;-67
2022/04/03 09:04:39;;;;;;;1.93;1.50;;;;;3.20;101720.00;;;;5012160;28;20234;-70
2022/04/03 09:07:26;;;;;;;1.43;1.33;;;;;3.60;101722.00;;;;5015243;28;20306;-68
2022/04/03 09:10:16;;;;;;;2.60;1.50;;;;;3.50;101717.00;;;;5013817;28;20238;-69
2022/04/03 09:13:06;;;;;;;1.90;1.60;;;;;3.80;101716.00;;;;5020715;28;20237;-69
2022/04/03 09:15:53;;;;;;;2.63;1.80;;;;;4.10;101715.00;;;;5016324;28;20307;-68
2022/04/03 09:18:47;;;;;;;2.20;1.60;;;;;4.20;101718.00;;;;5015455;28;20831;-68
2022/04/03 09:21:35;;;;;;;2.30;1.60;;;;;4.40;101708.00;;;;5020289;28;20237;-65
2022/04/03 09:24:22;;;;;;;1.63;1.50;;;;;4.40;101707.00;;;;5044036;28;20897;-66
2022/04/03 09:27:09;;;;;;;1.70;1.60;;;;;4.60;101713.00;;;;5042947;28;20316;-67
2022/04/03 09:30:05;;;;;;;2.07;1.87;;;;;4.70;101700.00;;;;5036185;28;20720;-68
2022/04/03 09:32:54;;;;;;;1.60;1.50;;;;;4.50;101718.00;;;;5029699;28;20685;-68
2022/04/03 09:35:55;;;;;;;1.93;1.47;;;;;4.60;101711.00;;;;5025420;28;20342;-67
2022/04/03 09:38:43;;;;;;;1.90;1.40;;;;;4.70;101711.00;;;;5013786;28;20239;-67
2022/04/03 09:41:31;;;;;;;1.83;1.67;;;;;5.00;101710.00;;;;5011195;28;20301;-67
2022/04/03 09:44:18;;;;;;;1.87;1.57;;;;;5.10;101707.00;;;;5008185;28;20261;-67
2022/04/03 09:47:17;;;;;;;3.20;1.87;;;;;5.30;101707.00;;;;5043476;28;20235;-67
2022/04/03 09:50:06;;;;;;;2.10;1.80;;;;;5.40;101705.00;;;;5034798;28;20306;-67
2022/04/03 09:52:55;;;;;;;3.03;1.40;;;;;5.60;101698.00;;;;5030401;28;20238;-67
2022/04/03 09:55:42;;;;;;;2.50;1.40;;;;;5.80;101701.00;;;;5025231;28;20772;-67
2022/04/03 09:58:29;;;;;;;4.90;1.40;;;;;6.10;101698.00;;;;5042801;28;20251;-66
2022/04/03 10:01:24;;;;;;;1.93;1.70;;;;;6.30;101685.00;;;;5041514;28;20237;-66
2022/04/03 10:04:14;;;;;;;2.07;1.53;;;;;6.50;101692.00;;;;5013214;28;20234;-67
2022/04/03 10:07:03;;;;;;;4.07;1.67;;;;;6.70;101691.00;;;;5012637;28;20238;-67
2022/04/03 10:09:51;;;;;;;1.70;1.60;;;;;6.70;101674.00;;;;5025658;28;20324;-67
2022/04/03 10:12:39;;;;;;;1.90;1.70;;;;;6.90;101669.00;;;;5017765;28;21028;-67
2022/04/03 10:15:29;;;;;;;2.60;1.37;;;;;7.10;101668.00;;;;5041582;28;20231;-67
2022/04/03 10:18:16;;;;;;;1.60;1.50;;;;;7.10;101664.00;;;;5025827;28;20745;-67
2022/04/03 10:21:07;;;;;;;1.93;1.20;;;;;6.90;101661.00;;;;5042926;28;20240;-65
2022/04/03 10:23:59;;;;;;;2.57;1.73;;;;;7.10;101668.00;;;;5043002;28;20872;-65
2022/04/03 10:26:52;;;;;;;1.60;1.50;;;;;7.30;101662.00;;;;5029951;28;20236;-69
2022/04/03 10:29:43;;;;;;;4.70;1.70;;;;;7.40;101660.00;;;;5028371;28;20307;-69
2022/04/03 10:32:33;;;;;;;1.57;1.47;;;;;7.80;101656.00;;;;5039981;28;20271;-67
2022/04/03 10:35:22;;;;;;;1.57;1.47;;;;;7.80;101652.00;;;;5027568;28;20252;-67
2022/04/03 10:38:10;;;;;;;1.40;1.30;;;;;7.90;101660.00;;;;5039997;28;20233;-68
2022/04/03 10:40:59;;;;;;;2.50;1.53;;;;;8.10;101653.00;;;;5042362;28;20239;-68
2022/04/03 10:43:47;;;;;;;1.87;1.37;;;;;8.50;101646.00;;;;5030344;28;20240;-68
2022/04/03 10:46:35;;;;;;;1.40;1.30;;;;;8.60;101640.00;;;;5026915;28;20240;-68
2022/04/03 10:49:29;;;;;;;2.80;1.60;;;;;8.40;101645.00;;;;5000607;28;20612;-69
2022/04/03 10:52:26;;;;;;;3.17;1.80;;;;;8.70;101643.00;;;;5018018;28;20240;-67
2022/04/03 10:55:16;;;;;;;1.33;1.23;;;;;9.30;101640.00;;;;5041990;28;20704;-67
2022/04/03 10:58:18;;;;;;;1.57;1.33;;;;;9.00;101646.00;;;;5015252;28;20820;-68
2022/04/03 11:01:12;;;;;;;2.70;1.70;;;;;9.20;101642.00;;;;5034757;28;20224;-66
2022/04/03 11:04:01;;;;;;;1.27;1.17;;;;;9.40;101629.00;;;;5038818;28;20291;-67
2022/04/03 11:06:50;;;;;;;1.90;1.43;;;;;9.50;101618.00;;;;5026467;28;20302;-64
2022/04/03 11:09:43;;;;;;;1.27;1.20;;;;;9.30;101612.00;;;;5026802;28;20237;-69
2022/04/03 11:12:45;;;;;;;2.77;1.77;;;;;9.20;101606.00;;;;5041577;28;20240;-68
2022/04/03 11:15:46;;;;;;;1.97;1.30;;;;;9.30;101617.00;;;;5040965;28;20236;-67
2022/04/03 11:18:34;;;;;;;1.73;1.33;;;;;9.40;101607.00;;;;5023865;28;20765;-62
2022/04/03 11:21:22;;;;;;;3.03;1.40;;;;;9.30;101607.00;;;;5041497;28;20234;-67
2022/04/03 11:24:12;;;;;;;2.27;1.60;;;;;8.90;101602.00;;;;5041600;28;20232;-68
2022/04/03 11:27:00;;;;;;;1.73;1.40;;;;;8.70;101599.00;;;;5042074;28;20244;-67
2022/04/03 11:29:53;;;;;;;1.67;1.57;;;;;8.40;101603.00;;;;5030285;28;20238;-69
2022/04/03 11:32:43;;;;;;;1.60;1.40;;;;;8.40;101597.00;;;;5013687;28;20737;-69
2022/04/03 11:35:36;;;;;;;1.53;1.43;;;;;8.30;101604.00;;;;5026190;28;20230;-68
2022/04/03 11:38:23;;;;;;;1.50;1.30;;;;;8.60;101594.00;;;;5041100;28;20812;-68
2022/04/03 11:41:16;;;;;;;3.20;1.90;;;;;8.70;101584.00;;;;5041343;28;20260;-67
2022/04/03 11:44:06;;;;;;;1.80;1.70;;;;;8.80;101580.00;;;;5041292;28;20237;-67
2022/04/03 11:46:54;;;;;;;1.83;1.73;;;;;9.20;101568.00;;;;5015953;28;20265;-70
2022/04/03 11:49:41;;;;;;;2.50;1.53;;;;;9.40;101582.00;;;;5041584;28;20254;-67
2022/04/03 11:52:29;;;;;;;1.73;1.53;;;;;9.10;101566.00;;;;5039727;28;20228;-68
2022/04/03 11:55:16;;;;;;;1.57;1.47;;;;;8.90;101572.00;;;;5040933;28;20364;-68
2022/04/03 11:58:07;;;;;;;2.83;1.43;;;;;8.70;101571.00;;;;5026839;28;20324;-70
2022/04/03 12:04:08;;;;;;;1.70;1.60;;;;;8.40;101590.00;;;;5032420;28;20234;-67
2022/04/03 12:06:59;;;;;;;2.27;1.50;;;;;7.80;101589.00;;;;5019440;28;20233;-67
2022/04/03 12:09:46;;;;;;;2.20;1.80;;;;;7.50;101589.00;;;;5027921;28;20244;-67
2022/04/03 12:12:32;;;;;;;1.90;1.60;;;;;7.60;101584.00;;;;4996716;28;20298;-69
2022/04/03 12:15:35;;;;;;;1.80;1.70;;;;;7.60;101588.00;;;;5014181;28;20280;-70
2022/04/03 12:18:55;;;;;;;1.67;1.57;;;;;8.00;101591.00;;;;5001034;28;20312;-66
2022/04/03 12:21:45;;;;;;;2.87;1.50;;;;;8.30;101598.00;;;;5045093;28;20240;-68
2022/04/03 12:24:33;;;;;;;1.77;1.50;;;;;8.10;101589.00;;;;5011025;28;20293;-68
2022/04/03 12:27:22;;;;;;;2.53;1.50;;;;;8.30;101591.00;;;;5029947;28;20228;-69
2022/04/03 12:30:10;;;;;;;1.60;1.50;;;;;8.50;101586.00;;;;5047364;28;20259;-69
2022/04/03 12:33:00;;;;;;;1.23;1.13;;;;;8.70;101589.00;;;;5044606;28;20295;-68
2022/04/03 12:35:46;;;;;;;2.00;1.70;;;;;8.70;101592.00;;;;5007405;28;20238;-69
2022/04/03 12:38:53;;;;;;;2.47;1.40;;;;;8.60;101582.00;;;;5011955;28;20280;-68
2022/04/03 12:41:40;;;;;;;1.80;1.30;;;;;8.90;101573.00;;;;5011977;28;20251;-69
2022/04/03 12:44:27;;;;;;;1.57;1.47;;;;;8.90;101570.00;;;;5013633;28;20226;-68
2022/04/03 12:47:15;;;;;;;3.63;1.33;;;;;8.50;101564.00;;;;5010754;28;20361;-70
2022/04/03 12:50:20;;;;;;;1.87;1.37;;;;;8.70;101570.00;;;;5013820;28;20234;-67
2022/04/03 12:53:11;;;;;;;2.63;1.63;;;;;9.00;101564.00;;;;5039947;28;20755;-66
2022/04/03 12:56:05;;;;;;;2.17;1.50;;;;;8.90;101570.00;;;;5037561;28;20242;-68
2022/04/03 12:58:51;;;;;;;1.67;1.20;;;;;9.10;101560.00;;;;5035380;28;20764;-68
2022/04/03 13:01:39;;;;;;;1.60;1.50;;;;;9.40;101572.00;;;;5031811;28;20953;-67
2022/04/03 13:04:31;;;;;;;1.60;1.50;;;;;9.40;101559.00;;;;5046618;28;20358;-68
2022/04/03 13:07:24;;;;;;;3.07;1.50;;;;;9.50;101561.00;;;;5038515;28;20233;-67
2022/04/03 13:10:20;;;;;;;2.53;1.70;;;;;9.70;101562.00;;;;5046746;28;20246;-68
2022/04/03 13:13:08;;;;;;;3.30;1.70;;;;;9.90;101566.00;;;;5032337;28;20731;-70
2022/04/03 13:15:56;;;;;;;1.47;1.37;;;;;9.90;101551.00;;;;5036040;28;20233;-68
2022/04/03 13:18:42;;;;;;;2.03;1.37;;;;;9.60;101544.00;;;;5027482;28;20319;-68
2022/04/03 13:21:34;;;;;;;1.73;1.40;;;;;9.80;101542.00;;;;5030003;28;20238;-70
2022/04/03 13:24:23;;;;;;;2.27;1.43;;;;;10.00;101535.00;;;;5046787;28;20237;-69
2022/04/03 13:27:11;;;;;;;2.30;1.60;;;;;10.20;101545.00;;;;5032510;28;20598;-68
2022/04/03 13:30:00;;;;;;;2.47;1.63;;;;;10.80;101535.00;;;;5046174;28;20586;-70
2022/04/03 13:32:47;;;;;;;2.00;1.60;;;;;11.40;101534.00;;;;5011193;28;20255;-71
2022/04/03 13:35:37;;;;;;;3.87;1.43;;;;;11.70;101521.00;;;;4994699;28;20257;-72
2022/04/03 13:38:24;;;;;;;1.57;1.47;;;;;11.50;101517.00;;;;5013946;28;20255;-71
2022/04/03 13:41:13;;;;;;;1.90;1.70;;;;;11.80;101519.00;;;;5039604;28;20375;-63
2022/04/03 13:44:00;;;;;;;1.77;1.63;;;;;12.00;101527.00;;;;5045571;28;20232;-67
2022/04/03 13:46:48;;;;;;;4.03;1.70;;;;;11.80;101519.00;;;;5036620;28;20770;-67
2022/04/03 13:49:36;;;;;;;1.97;1.63;;;;;11.40;101511.00;;;;5029682;28;20241;-67
2022/04/03 13:52:24;;;;;;;2.60;1.70;;;;;11.60;101515.00;;;;5045585;28;20248;-67
2022/04/03 13:55:18;;;;;;;2.80;1.77;;;;;11.60;101519.00;;;;5045867;28;20233;-66
2022/04/03 13:58:06;;;;;;;2.10;1.57;;;;;11.40;101507.00;;;;5046076;28;20236;-68
2022/04/03 14:00:53;;;;;;;2.33;2.00;;;;;11.50;101506.00;;;;5034297;28;20754;-68
2022/04/03 14:03:42;;;;;;;2.60;2.00;;;;;11.90;101503.00;;;;5038485;28;20227;-67